Time;durP1;ratioP1;P1;durP2;ratioP2;P2;SDS_P1;SDS_P2;PMS_P1;PMS_P2;Temp;Humidity;BMP_temperature;BMP_pressure;BME280_temperature;BME280_humidity;BME280_pressure;Samples;Min_cycle;Max_cycle;Signal;HPM_P1;HPM_P2
2021/04/29 00:02:15;;;;;;;16.23;10.32;;;;;;;;;;4986904;28;20231;-67
2021/04/29 00:04:40;;;;;;;17.08;11.45;;;;;;;;;;4997344;28;20649;-67
2021/04/29 00:07:06;;;;;;;19.55;10.88;;;;;;;;;;4997785;28;20187;-67
2021/04/29 00:09:32;;;;;;;20.65;11.55;;;;;;;;;;4983250;28;20703;-67
2021/04/29 00:11:58;;;;;;;18.13;11.25;;;;;;;;;;4990862;28;20180;-67
2021/04/29 00:14:23;;;;;;;16.40;11.73;;;;;;;;;;4984019;28;21520;-67
2021/04/29 00:16:49;;;;;;;19.67;11.55;;;;;;;;;;4987071;28;20202;-67
2021/04/29 00:19:14;;;;;;;17.77;11.15;;;;;;;;;;4985599;28;20191;-67
2021/04/29 00:21:40;;;;;;;17.23;11.00;;;;;;;;;;4998926;28;20306;-67
2021/04/29 00:24:06;;;;;;;15.52;10.75;;;;;;;;;;4983188;28;20215;-67
2021/04/29 00:26:33;;;;;;;20.23;12.68;;;;;;;;;;4996333;28;20635;-67
2021/04/29 00:28:58;;;;;;;17.42;11.70;;;;;;;;;;4982927;28;20230;-66
2021/04/29 00:31:24;;;;;;;20.87;13.20;;;;;;;;;;4999951;28;20191;-66
2021/04/29 00:33:49;;;;;;;22.92;12.75;;;;;;;;;;4986384;28;20183;-66
2021/04/29 00:36:15;;;;;;;20.27;12.27;;;;;;;;;;4992226;28;20170;-66
2021/04/29 00:38:40;;;;;;;18.53;12.57;;;;;;;;;;4994602;28;20190;-66
2021/04/29 00:41:06;;;;;;;25.17;14.43;;;;;;;;;;4980732;28;20219;-67
2021/04/29 00:43:32;;;;;;;21.43;13.90;;;;;;;;;;4992260;28;20211;-67
2021/04/29 00:45:58;;;;;;;18.47;13.90;;;;;;;;;;4988485;28;20195;-66
2021/04/29 00:48:24;;;;;;;23.57;15.17;;;;;;;;;;4991879;28;20194;-66
2021/04/29 00:50:50;;;;;;;21.23;15.15;;;;;;;;;;4992682;28;20194;-67
2021/04/29 00:53:16;;;;;;;21.27;14.40;;;;;;;;;;4991363;28;20267;-66
2021/04/29 00:55:42;;;;;;;22.60;15.27;;;;;;;;;;4984444;28;20562;-67
2021/04/29 00:58:07;;;;;;;21.42;16.17;;;;;;;;;;4989249;28;20187;-67
2021/04/29 01:00:34;;;;;;;18.77;14.70;;;;;;;;;;4981240;28;20646;-67
2021/04/29 01:03:07;;;;;;;24.52;16.27;;;;;;;;;;4996650;28;20218;-67
2021/04/29 01:05:43;;;;;;;22.48;16.48;;;;;;;;;;4992637;28;20194;-67
2021/04/29 01:08:16;;;;;;;21.80;16.33;;;;;;;;;;4989182;28;20218;-67
2021/04/29 01:10:53;;;;;;;22.70;16.10;;;;;;;;;;4989874;28;20549;-67
2021/04/29 01:13:22;;;;;;;23.92;16.58;;;;;;;;;;4991746;28;20265;-67
2021/04/29 01:15:49;;;;;;;22.83;17.05;;;;;;;;;;4987251;28;20194;-67
2021/04/29 01:18:16;;;;;;;23.83;17.40;;;;;;;;;;5005946;28;20551;-68
2021/04/29 01:20:52;;;;;;;24.70;19.15;;;;;;;;;;4988130;28;20190;-67
2021/04/29 01:23:34;;;;;;;23.50;18.17;;;;;;;;;;4983306;28;20219;-68
2021/04/29 01:26:05;;;;;;;21.13;16.67;;;;;;;;;;5000225;28;20179;-67
2021/04/29 01:28:30;;;;;;;23.15;17.33;;;;;;;;;;4996664;28;20206;-67
2021/04/29 01:30:58;;;;;;;24.92;18.92;;;;;;;;;;4992629;28;20187;-67
2021/04/29 01:33:24;;;;;;;21.90;17.37;;;;;;;;;;4983849;28;20640;-67
2021/04/29 01:35:50;;;;;;;23.23;17.53;;;;;;;;;;4991279;28;20182;-67
2021/04/29 01:38:16;;;;;;;26.40;18.45;;;;;;;;;;4985741;28;20203;-67
2021/04/29 01:40:42;;;;;;;21.30;17.42;;;;;;;;;;4998737;28;20184;-67
2021/04/29 01:43:07;;;;;;;22.85;17.48;;;;;;;;;;4981124;28;20675;-67
2021/04/29 01:45:35;;;;;;;21.85;16.58;;;;;;;;;;4992792;28;20178;-68
2021/04/29 01:48:00;;;;;;;26.30;17.42;;;;;;;;;;4981772;28;20347;-67
2021/04/29 01:50:26;;;;;;;22.13;17.20;;;;;;;;;;4992933;28;20290;-67
2021/04/29 01:52:52;;;;;;;24.15;17.38;;;;;;;;;;4982668;28;20755;-67
2021/04/29 01:55:18;;;;;;;21.92;18.15;;;;;;;;;;4996590;28;20175;-67
2021/04/29 01:57:44;;;;;;;24.40;17.40;;;;;;;;;;4995711;28;20195;-67
2021/04/29 02:00:10;;;;;;;23.23;17.55;;;;;;;;;;4987061;28;20269;-67
2021/04/29 02:02:36;;;;;;;25.23;18.15;;;;;;;;;;4997379;28;20219;-67
2021/04/29 02:05:02;;;;;;;22.33;18.17;;;;;;;;;;4984971;28;20190;-67
2021/04/29 02:07:27;;;;;;;25.27;18.80;;;;;;;;;;4995847;28;20187;-67
2021/04/29 02:09:53;;;;;;;23.00;17.55;;;;;;;;;;4988579;28;20195;-67
2021/04/29 02:12:18;;;;;;;24.98;18.80;;;;;;;;;;4995447;28;20183;-67
2021/04/29 02:15:04;;;;;;;24.60;18.63;;;;;;;;;;4988949;28;20206;-67
2021/04/29 02:17:49;;;;;;;23.27;17.70;;;;;;;;;;4993607;28;21761;-67
2021/04/29 02:20:16;;;;;;;26.45;18.52;;;;;;;;;;4988737;28;20195;-67
2021/04/29 02:22:43;;;;;;;22.88;18.15;;;;;;;;;;4998691;28;20563;-67
2021/04/29 02:25:12;;;;;;;22.67;17.83;;;;;;;;;;4983528;28;20193;-67
2021/04/29 02:27:38;;;;;;;23.60;18.00;;;;;;;;;;4992398;28;20205;-67
2021/04/29 02:30:10;;;;;;;22.67;17.13;;;;;;;;;;4984223;28;20203;-67
2021/04/29 02:32:35;;;;;;;22.95;17.50;;;;;;;;;;4991806;28;20191;-67
2021/04/29 02:35:05;;;;;;;21.65;17.67;;;;;;;;;;4991568;28;20182;-67
2021/04/29 02:37:31;;;;;;;21.58;17.10;;;;;;;;;;4993703;28;20186;-67
2021/04/29 02:39:56;;;;;;;19.13;16.08;;;;;;;;;;4997306;28;20197;-67
2021/04/29 02:42:22;;;;;;;22.52;16.80;;;;;;;;;;4988302;28;20229;-67
2021/04/29 02:44:48;;;;;;;23.90;18.40;;;;;;;;;;4996738;28;20703;-67
2021/04/29 02:47:15;;;;;;;20.27;16.45;;;;;;;;;;4987511;28;20325;-67
2021/04/29 02:49:41;;;;;;;21.67;16.13;;;;;;;;;;4998629;28;20534;-67
2021/04/29 02:52:08;;;;;;;21.42;16.35;;;;;;;;;;4988644;28;20274;-67
2021/04/29 02:54:34;;;;;;;22.50;16.30;;;;;;;;;;4993037;28;20175;-67
2021/04/29 02:56:59;;;;;;;24.70;17.48;;;;;;;;;;4988390;28;20246;-67
2021/04/29 02:59:25;;;;;;;21.73;16.90;;;;;;;;;;4993864;28;20586;-67
2021/04/29 03:01:50;;;;;;;26.48;17.65;;;;;;;;;;4984488;28;20231;-67
2021/04/29 03:04:15;;;;;;;25.40;16.55;;;;;;;;;;4991221;28;20192;-67
2021/04/29 03:06:41;;;;;;;22.48;17.27;;;;;;;;;;4980661;28;20202;-67
2021/04/29 03:09:06;;;;;;;23.52;16.95;;;;;;;;;;4995316;28;20179;-67
2021/04/29 03:11:35;;;;;;;24.05;18.08;;;;;;;;;;4995703;28;20289;-67
2021/04/29 03:14:01;;;;;;;23.70;17.40;;;;;;;;;;4984995;28;20195;-67
2021/04/29 03:16:27;;;;;;;25.13;17.52;;;;;;;;;;4997592;28;20238;-67
2021/04/29 03:18:52;;;;;;;26.35;18.25;;;;;;;;;;4990673;28;20543;-67
2021/04/29 03:21:17;;;;;;;21.60;16.70;;;;;;;;;;4993598;28;20211;-67
2021/04/29 03:23:43;;;;;;;21.75;17.42;;;;;;;;;;4982477;28;20229;-67
2021/04/29 03:26:08;;;;;;;25.73;17.48;;;;;;;;;;4999061;28;20233;-67
2021/04/29 03:28:33;;;;;;;22.88;17.30;;;;;;;;;;4988826;28;20282;-67
2021/04/29 03:30:59;;;;;;;22.73;17.75;;;;;;;;;;4993867;28;20632;-67
2021/04/29 03:33:24;;;;;;;21.35;16.95;;;;;;;;;;4984001;28;20238;-67
2021/04/29 03:35:49;;;;;;;25.00;18.67;;;;;;;;;;4995358;28;20187;-67
2021/04/29 03:38:15;;;;;;;22.98;17.70;;;;;;;;;;4983559;28;20205;-67
2021/04/29 03:40:40;;;;;;;26.23;17.67;;;;;;;;;;4992938;28;20270;-67
2021/04/29 03:43:06;;;;;;;23.85;18.42;;;;;;;;;;4993077;28;20210;-67
2021/04/29 03:45:32;;;;;;;22.48;16.88;;;;;;;;;;4981618;28;20199;-67
2021/04/29 03:47:58;;;;;;;23.90;17.58;;;;;;;;;;4992262;28;20429;-67
2021/04/29 03:50:23;;;;;;;24.95;18.27;;;;;;;;;;4991769;28;20278;-67
2021/04/29 03:52:49;;;;;;;22.92;17.80;;;;;;;;;;4995387;28;21189;-67
2021/04/29 03:55:14;;;;;;;23.48;18.08;;;;;;;;;;4986032;28;20277;-67
2021/04/29 03:57:40;;;;;;;26.40;17.50;;;;;;;;;;4992229;28;20191;-67
2021/04/29 04:00:08;;;;;;;25.02;18.02;;;;;;;;;;4988604;28;20198;-67
2021/04/29 04:02:33;;;;;;;24.77;17.63;;;;;;;;;;4993084;28;20211;-67
2021/04/29 04:04:58;;;;;;;27.27;18.98;;;;;;;;;;4983599;28;20579;-67
2021/04/29 04:07:24;;;;;;;25.63;17.92;;;;;;;;;;4993832;28;20194;-67
2021/04/29 04:09:49;;;;;;;26.50;19.15;;;;;;;;;;4989608;28;20579;-67
2021/04/29 04:12:14;;;;;;;26.95;20.27;;;;;;;;;;4992629;28;20186;-67
2021/04/29 04:14:40;;;;;;;24.38;19.35;;;;;;;;;;4989940;28;20238;-67
2021/04/29 04:17:05;;;;;;;29.20;20.00;;;;;;;;;;4982324;28;20210;-67
2021/04/29 04:19:31;;;;;;;26.83;20.30;;;;;;;;;;4990936;28;20274;-67
2021/04/29 04:21:56;;;;;;;28.05;19.58;;;;;;;;;;4983527;28;20716;-67
2021/04/29 04:24:21;;;;;;;31.27;20.50;;;;;;;;;;4994886;28;20178;-67
2021/04/29 04:26:47;;;;;;;27.50;20.40;;;;;;;;;;4983721;28;20189;-66
2021/04/29 04:29:12;;;;;;;27.60;21.03;;;;;;;;;;4997686;28;20178;-67
2021/04/29 04:31:37;;;;;;;31.00;21.33;;;;;;;;;;4989885;28;20215;-67
2021/04/29 04:34:03;;;;;;;35.53;22.53;;;;;;;;;;4993154;28;20183;-66
2021/04/29 04:36:28;;;;;;;28.83;21.77;;;;;;;;;;4983560;28;20553;-66
2021/04/29 04:38:54;;;;;;;31.50;22.27;;;;;;;;;;4989343;28;20187;-66
2021/04/29 04:41:19;;;;;;;34.63;22.90;;;;;;;;;;4987697;28;20650;-66
2021/04/29 04:43:45;;;;;;;30.30;22.53;;;;;;;;;;4994193;28;20202;-66
2021/04/29 04:46:10;;;;;;;32.80;23.47;;;;;;;;;;4994831;28;20223;-66
2021/04/29 04:48:35;;;;;;;36.60;24.93;;;;;;;;;;4984236;28;20195;-66
2021/04/29 04:51:01;;;;;;;35.30;25.20;;;;;;;;;;4998633;28;20187;-67
2021/04/29 04:53:26;;;;;;;36.53;24.87;;;;;;;;;;4981369;28;20191;-68
2021/04/29 04:55:52;;;;;;;37.70;26.07;;;;;;;;;;4992965;28;20622;-67
2021/04/29 04:58:18;;;;;;;34.33;24.93;;;;;;;;;;4986340;28;20642;-67
2021/04/29 05:00:44;;;;;;;34.67;24.80;;;;;;;;;;4993331;28;20188;-67
2021/04/29 05:03:12;;;;;;;31.50;24.15;;;;;;;;;;4984563;28;20598;-67
2021/04/29 05:05:43;;;;;;;35.10;24.87;;;;;;;;;;4993190;28;20698;-67
2021/04/29 05:08:08;;;;;;;33.35;23.77;;;;;;;;;;4983591;28;20229;-67
2021/04/29 05:10:35;;;;;;;34.00;24.52;;;;;;;;;;4996939;28;20191;-67
2021/04/29 05:13:01;;;;;;;35.60;25.03;;;;;;;;;;4988305;28;20193;-67
2021/04/29 05:15:28;;;;;;;35.70;24.52;;;;;;;;;;4995019;28;20190;-67
2021/04/29 05:17:53;;;;;;;32.63;24.00;;;;;;;;;;4989806;28;20183;-67
2021/04/29 05:20:18;;;;;;;32.85;24.20;;;;;;;;;;4984637;28;20206;-67
2021/04/29 05:22:44;;;;;;;36.63;24.20;;;;;;;;;;4992837;28;20277;-67
2021/04/29 05:25:10;;;;;;;30.75;23.38;;;;;;;;;;4981505;28;20213;-67
2021/04/29 05:27:35;;;;;;;34.78;24.30;;;;;;;;;;4996063;28;20218;-67
2021/04/29 05:30:00;;;;;;;33.63;22.93;;;;;;;;;;4984203;28;20198;-67
2021/04/29 05:32:26;;;;;;;31.20;23.27;;;;;;;;;;4995307;28;20201;-67
2021/04/29 05:34:51;;;;;;;33.08;24.33;;;;;;;;;;4989592;28;20317;-67
2021/04/29 05:37:16;;;;;;;34.15;24.33;;;;;;;;;;4993972;28;20226;-67
2021/04/29 05:39:44;;;;;;;35.78;23.73;;;;;;;;;;4990656;28;20191;-67
2021/04/29 05:42:09;;;;;;;30.30;22.77;;;;;;;;;;4993166;28;20218;-68
2021/04/29 05:44:35;;;;;;;33.10;23.38;;;;;;;;;;4985160;28;20520;-67
2021/04/29 05:47:00;;;;;;;30.23;23.27;;;;;;;;;;4994469;28;20583;-67
2021/04/29 05:49:25;;;;;;;31.77;23.75;;;;;;;;;;4992772;28;20500;-66
2021/04/29 05:51:51;;;;;;;33.05;23.55;;;;;;;;;;4984540;28;20204;-66
2021/04/29 05:54:16;;;;;;;33.15;23.67;;;;;;;;;;4996053;28;20206;-66
2021/04/29 05:56:41;;;;;;;33.50;22.88;;;;;;;;;;4987506;28;20183;-66
2021/04/29 05:59:07;;;;;;;31.38;22.75;;;;;;;;;;4995642;28;20184;-67
2021/04/29 06:01:32;;;;;;;32.65;23.67;;;;;;;;;;4984894;28;20195;-67
2021/04/29 06:03:57;;;;;;;28.48;22.63;;;;;;;;;;4998048;28;20207;-67
2021/04/29 06:06:23;;;;;;;34.33;23.10;;;;;;;;;;4985630;28;20182;-66
2021/04/29 06:08:50;;;;;;;34.15;22.08;;;;;;;;;;4991620;28;20671;-67
2021/04/29 06:11:16;;;;;;;29.38;21.73;;;;;;;;;;4984837;28;20294;-67
2021/04/29 06:13:44;;;;;;;29.95;22.70;;;;;;;;;;4994945;28;20290;-67
2021/04/29 06:16:09;;;;;;;31.90;21.95;;;;;;;;;;4983393;28;20197;-66
2021/04/29 06:18:35;;;;;;;34.63;22.10;;;;;;;;;;4989772;28;20184;-67
2021/04/29 06:21:00;;;;;;;33.83;22.63;;;;;;;;;;4992923;28;20203;-66
2021/04/29 06:23:25;;;;;;;29.50;21.65;;;;;;;;;;4984993;28;20705;-67
2021/04/29 06:25:51;;;;;;;32.33;20.85;;;;;;;;;;4997842;28;20322;-67
2021/04/29 06:28:16;;;;;;;36.45;21.40;;;;;;;;;;4990056;28;20195;-67
2021/04/29 06:30:42;;;;;;;30.58;21.55;;;;;;;;;;4994094;28;20191;-67
2021/04/29 06:33:08;;;;;;;32.88;21.27;;;;;;;;;;4990112;28;20182;-67
2021/04/29 06:35:34;;;;;;;30.17;20.95;;;;;;;;;;4995607;28;20190;-67
2021/04/29 06:37:59;;;;;;;32.65;20.95;;;;;;;;;;4986012;28;20548;-67
2021/04/29 06:40:25;;;;;;;32.05;21.52;;;;;;;;;;4992727;28;20194;-66
2021/04/29 06:42:51;;;;;;;37.03;22.02;;;;;;;;;;4992673;28;20210;-67
2021/04/29 06:45:16;;;;;;;33.92;23.73;;;;;;;;;;4998251;28;20222;-67
2021/04/29 06:47:42;;;;;;;31.88;22.58;;;;;;;;;;4986163;28;20226;-67
2021/04/29 06:50:08;;;;;;;35.65;21.92;;;;;;;;;;5001149;28;20182;-67
2021/04/29 06:52:33;;;;;;;33.55;22.40;;;;;;;;;;5011670;28;20171;-67
2021/04/29 06:54:58;;;;;;;34.97;22.92;;;;;;;;;;4988743;28;20606;-68
2021/04/29 06:57:24;;;;;;;36.20;24.48;;;;;;;;;;4989892;28;20198;-68
2021/04/29 06:59:50;;;;;;;30.98;22.75;;;;;;;;;;4987422;28;20182;-68
2021/04/29 07:02:15;;;;;;;31.70;22.65;;;;;;;;;;4994935;28;20305;-67
2021/04/29 07:04:41;;;;;;;32.95;22.83;;;;;;;;;;4985433;28;20333;-67
2021/04/29 07:07:06;;;;;;;35.70;23.77;;;;;;;;;;4989699;28;20183;-67
2021/04/29 07:09:31;;;;;;;35.90;22.77;;;;;;;;;;4984935;28;20198;-67
2021/04/29 07:11:57;;;;;;;30.00;20.40;;;;;;;;;;4998913;28;20369;-67
2021/04/29 07:14:22;;;;;;;30.77;20.87;;;;;;;;;;4988538;28;20239;-67
2021/04/29 07:16:48;;;;;;;28.57;21.50;;;;;;;;;;4994486;28;20183;-67
2021/04/29 07:19:14;;;;;;;33.43;21.90;;;;;;;;;;4980661;28;20219;-67
2021/04/29 07:21:39;;;;;;;31.47;21.67;;;;;;;;;;4991735;28;20651;-67
2021/04/29 07:24:05;;;;;;;34.37;23.00;;;;;;;;;;4994441;28;20191;-66
2021/04/29 07:26:33;;;;;;;31.97;21.17;;;;;;;;;;4992624;28;20277;-66
2021/04/29 07:28:58;;;;;;;34.60;22.70;;;;;;;;;;5001040;28;20206;-66
2021/04/29 07:31:24;;;;;;;30.15;21.45;;;;;;;;;;4985864;28;20643;-66
2021/04/29 07:33:49;;;;;;;31.37;20.17;;;;;;;;;;4998502;28;20618;-67
2021/04/29 07:36:14;;;;;;;34.90;23.20;;;;;;;;;;4984038;28;20195;-67
2021/04/29 07:38:40;;;;;;;31.27;22.33;;;;;;;;;;4993722;28;20200;-67
2021/04/29 07:41:05;;;;;;;32.23;22.37;;;;;;;;;;4985721;28;20330;-66
2021/04/29 07:43:31;;;;;;;33.27;22.30;;;;;;;;;;4995655;28;20717;-66
2021/04/29 07:45:57;;;;;;;33.73;22.13;;;;;;;;;;4984586;28;20186;-67
2021/04/29 07:48:22;;;;;;;32.50;21.33;;;;;;;;;;4990251;28;20370;-66
2021/04/29 07:50:48;;;;;;;30.95;20.98;;;;;;;;;;4981569;28;20585;-67
2021/04/29 07:53:13;;;;;;;33.47;22.65;;;;;;;;;;4995905;28;20172;-67
2021/04/29 07:55:39;;;;;;;34.30;23.40;;;;;;;;;;4993017;28;20226;-67
2021/04/29 07:58:04;;;;;;;34.42;24.75;;;;;;;;;;4990893;28;20233;-67
2021/04/29 08:00:30;;;;;;;35.50;23.48;;;;;;;;;;4994664;28;20559;-67
2021/04/29 08:02:55;;;;;;;31.33;21.98;;;;;;;;;;4991752;28;20221;-67
2021/04/29 08:05:21;;;;;;;32.65;23.23;;;;;;;;;;4992430;28;20671;-67
2021/04/29 08:07:46;;;;;;;33.72;21.42;;;;;;;;;;4990165;28;20201;-67
2021/04/29 08:10:14;;;;;;;30.75;22.75;;;;;;;;;;4995322;28;20183;-67
2021/04/29 08:12:39;;;;;;;41.78;23.60;;;;;;;;;;4992338;28;20206;-67
2021/04/29 08:15:06;;;;;;;39.72;24.05;;;;;;;;;;4989310;28;20730;-67
2021/04/29 08:17:32;;;;;;;35.03;23.60;;;;;;;;;;4991658;28;20282;-67
2021/04/29 08:19:57;;;;;;;34.90;24.42;;;;;;;;;;4989975;28;20270;-67
2021/04/29 08:22:24;;;;;;;50.17;31.00;;;;;;;;;;4986107;28;20206;-67
2021/04/29 08:24:49;;;;;;;37.08;25.23;;;;;;;;;;4996294;28;20183;-67
2021/04/29 08:27:15;;;;;;;40.58;26.48;;;;;;;;;;4990263;28;20188;-67
2021/04/29 08:29:40;;;;;;;43.05;27.60;;;;;;;;;;4986891;28;20647;-67
2021/04/29 08:32:06;;;;;;;43.45;28.02;;;;;;;;;;4987421;28;20203;-67
2021/04/29 08:34:32;;;;;;;43.08;29.83;;;;;;;;;;4981085;28;20273;-67
2021/04/29 08:36:57;;;;;;;44.10;29.70;;;;;;;;;;4996322;28;20181;-67
2021/04/29 08:39:23;;;;;;;52.87;31.57;;;;;;;;;;4984191;28;20242;-67
2021/04/29 08:41:48;;;;;;;47.85;30.40;;;;;;;;;;4989394;28;20231;-67
2021/04/29 08:44:13;;;;;;;49.58;30.83;;;;;;;;;;4985232;28;20195;-67
2021/04/29 08:46:39;;;;;;;44.13;29.95;;;;;;;;;;4997672;28;20301;-66
2021/04/29 08:49:05;;;;;;;44.75;30.83;;;;;;;;;;4981771;28;20199;-67
2021/04/29 08:51:30;;;;;;;43.17;29.70;;;;;;;;;;4996280;28;20191;-68
2021/04/29 08:53:56;;;;;;;46.30;30.05;;;;;;;;;;4984445;28;20195;-68
2021/04/29 08:56:25;;;;;;;42.05;28.52;;;;;;;;;;4990208;28;20207;-67
2021/04/29 08:58:51;;;;;;;43.35;29.55;;;;;;;;;;4998432;28;20192;-67
2021/04/29 09:01:17;;;;;;;37.28;28.25;;;;;;;;;;4985387;28;20199;-69
2021/04/29 09:03:44;;;;;;;42.25;29.60;;;;;;;;;;5002075;28;20210;-68
2021/04/29 09:06:09;;;;;;;38.70;28.70;;;;;;;;;;4986223;28;20274;-67
2021/04/29 09:08:37;;;;;;;38.95;27.80;;;;;;;;;;5001371;28;20658;-67
2021/04/29 09:11:17;;;;;;;42.28;28.02;;;;;;;;;;4987396;28;20187;-67
2021/04/29 09:14:00;;;;;;;35.22;25.83;;;;;;;;;;4996141;28;20198;-67
2021/04/29 09:16:41;;;;;;;38.58;26.20;;;;;;;;;;5003038;28;20550;-66
2021/04/29 09:19:17;;;;;;;35.97;25.98;;;;;;;;;;4996588;28;20549;-66
2021/04/29 09:21:42;;;;;;;35.30;25.48;;;;;;;;;;4989323;28;20186;-67
2021/04/29 09:24:08;;;;;;;36.17;24.52;;;;;;;;;;4995298;28;20183;-67
2021/04/29 09:26:34;;;;;;;35.67;26.02;;;;;;;;;;4987424;28;20194;-68
2021/04/29 09:29:09;;;;;;;37.78;26.15;;;;;;;;;;4998537;28;20408;-67
2021/04/29 09:31:40;;;;;;;34.97;25.52;;;;;;;;;;4989343;28;20515;-68
2021/04/29 09:34:06;;;;;;;35.58;26.13;;;;;;;;;;5000096;28;20190;-67
2021/04/29 09:36:36;;;;;;;36.05;24.55;;;;;;;;;;4987035;28;20207;-67
2021/04/29 09:39:08;;;;;;;38.42;26.05;;;;;;;;;;4993076;28;20799;-67
2021/04/29 09:41:35;;;;;;;40.00;26.33;;;;;;;;;;4985175;28;20198;-67
2021/04/29 09:44:04;;;;;;;37.42;26.58;;;;;;;;;;4992811;28;20357;-68
2021/04/29 09:46:47;;;;;;;38.95;25.50;;;;;;;;;;4998972;28;20779;-68
2021/04/29 09:49:27;;;;;;;37.60;25.30;;;;;;;;;;4997678;28;20270;-67
2021/04/29 09:51:54;;;;;;;34.55;26.17;;;;;;;;;;4987479;28;20187;-67
2021/04/29 09:54:30;;;;;;;34.95;24.75;;;;;;;;;;4992619;28;20219;-67
2021/04/29 09:57:01;;;;;;;34.40;22.40;;;;;;;;;;4988617;28;20631;-68
2021/04/29 09:59:28;;;;;;;34.88;24.15;;;;;;;;;;4989060;28;20202;-67
2021/04/29 10:01:54;;;;;;;37.75;26.67;;;;;;;;;;4992636;28;20301;-67
2021/04/29 10:04:25;;;;;;;35.75;25.15;;;;;;;;;;4981555;28;20191;-68
2021/04/29 10:06:51;;;;;;;37.13;25.10;;;;;;;;;;4994166;28;20199;-68
2021/04/29 10:09:17;;;;;;;35.65;25.20;;;;;;;;;;4987441;28;20210;-67
2021/04/29 10:11:47;;;;;;;32.72;23.42;;;;;;;;;;4994877;28;20180;-68
2021/04/29 10:14:14;;;;;;;34.55;24.52;;;;;;;;;;4983570;28;20204;-67
2021/04/29 10:16:41;;;;;;;37.03;23.58;;;;;;;;;;4991059;28;20192;-67
2021/04/29 10:19:06;;;;;;;34.13;24.23;;;;;;;;;;4986026;28;20545;-67
2021/04/29 10:21:33;;;;;;;36.05;25.23;;;;;;;;;;4998680;28;20182;-66
2021/04/29 10:23:58;;;;;;;33.40;24.15;;;;;;;;;;4990734;28;20305;-67
2021/04/29 10:26:28;;;;;;;35.42;25.33;;;;;;;;;;4997688;28;20766;-66
2021/04/29 10:28:58;;;;;;;35.58;24.65;;;;;;;;;;4986455;28;20650;-68
2021/04/29 10:31:26;;;;;;;29.95;23.35;;;;;;;;;;4999095;28;20182;-66
2021/04/29 10:33:56;;;;;;;30.60;23.65;;;;;;;;;;4993771;28;20185;-66
2021/04/29 10:36:23;;;;;;;32.00;23.73;;;;;;;;;;4986119;28;20195;-66
2021/04/29 10:38:49;;;;;;;32.25;22.70;;;;;;;;;;4995395;28;20278;-66
2021/04/29 10:41:20;;;;;;;33.80;24.20;;;;;;;;;;4987377;28;20348;-66
2021/04/29 10:43:47;;;;;;;33.55;22.63;;;;;;;;;;4993409;28;20675;-66
2021/04/29 10:46:28;;;;;;;31.30;24.25;;;;;;;;;;4986129;28;20187;-67
2021/04/29 10:48:54;;;;;;;32.35;24.75;;;;;;;;;;4992206;28;20186;-67
2021/04/29 10:51:28;;;;;;;33.00;25.70;;;;;;;;;;4990825;28;20206;-67
2021/04/29 10:53:54;;;;;;;41.10;27.42;;;;;;;;;;4993325;28;20191;-67
2021/04/29 10:56:19;;;;;;;40.25;26.10;;;;;;;;;;4986605;28;20198;-67
2021/04/29 10:58:46;;;;;;;39.63;26.10;;;;;;;;;;4994148;28;20283;-66
2021/04/29 11:01:13;;;;;;;35.60;26.08;;;;;;;;;;4983295;28;20187;-66
2021/04/29 11:03:41;;;;;;;39.10;26.58;;;;;;;;;;4997069;28;20211;-67
2021/04/29 11:06:09;;;;;;;38.33;28.42;;;;;;;;;;4981941;28;20191;-68
2021/04/29 11:08:36;;;;;;;39.75;29.58;;;;;;;;;;4999149;28;20225;-68
2021/04/29 11:11:02;;;;;;;35.88;27.33;;;;;;;;;;4984222;28;20176;-67
2021/04/29 11:13:29;;;;;;;38.15;28.40;;;;;;;;;;4992624;28;20198;-67
2021/04/29 11:15:59;;;;;;;38.17;29.40;;;;;;;;;;4989534;28;20183;-67
2021/04/29 11:18:24;;;;;;;37.55;27.73;;;;;;;;;;4981696;28;20210;-67
2021/04/29 11:20:51;;;;;;;38.92;27.83;;;;;;;;;;4995226;28;20192;-67
2021/04/29 11:23:20;;;;;;;38.28;28.30;;;;;;;;;;4982648;28;20215;-67
2021/04/29 11:25:46;;;;;;;36.42;27.08;;;;;;;;;;4990492;28;20171;-67
2021/04/29 11:28:12;;;;;;;38.20;27.75;;;;;;;;;;4986606;28;20190;-67
2021/04/29 11:30:39;;;;;;;40.47;28.27;;;;;;;;;;4994878;28;20175;-67
2021/04/29 11:33:08;;;;;;;37.97;27.27;;;;;;;;;;4988735;28;20602;-67
2021/04/29 11:35:37;;;;;;;35.28;27.00;;;;;;;;;;4995451;28;20237;-67
2021/04/29 11:38:05;;;;;;;36.38;26.48;;;;;;;;;;4982668;28;20659;-67
2021/04/29 11:40:33;;;;;;;32.88;25.48;;;;;;;;;;4995267;28;20725;-67
2021/04/29 11:43:00;;;;;;;41.50;26.40;;;;;;;;;;4984134;28;20211;-67
2021/04/29 11:45:30;;;;;;;31.75;24.63;;;;;;;;;;4991255;28;20274;-67
2021/04/29 11:48:10;;;;;;;33.88;25.40;;;;;;;;;;4983146;28;20280;-68
2021/04/29 11:50:36;;;;;;;32.40;24.45;;;;;;;;;;4991218;28;20195;-67
2021/04/29 11:53:16;;;;;;;32.47;24.17;;;;;;;;;;4999117;28;20241;-67
2021/04/29 11:55:47;;;;;;;29.58;24.20;;;;;;;;;;4992546;28;20205;-67
2021/04/29 11:58:15;;;;;;;26.42;22.50;;;;;;;;;;4994397;28;20299;-68
2021/04/29 12:00:43;;;;;;;31.45;23.30;;;;;;;;;;4984343;28;20270;-68
2021/04/29 12:03:10;;;;;;;29.80;23.80;;;;;;;;;;4999666;28;20238;-67
2021/04/29 12:05:38;;;;;;;29.48;23.75;;;;;;;;;;4992356;28;20186;-68
2021/04/29 12:08:08;;;;;;;28.77;22.98;;;;;;;;;;4995437;28;20686;-68
2021/04/29 12:11:01;;;;;;;24.05;20.27;;;;;;;;;;4987547;28;20195;-68
2021/04/29 12:13:34;;;;;;;24.77;19.83;;;;;;;;;;4991619;28;20591;-68
2021/04/29 12:16:02;;;;;;;27.27;21.13;;;;;;;;;;4983671;28;20187;-68
2021/04/29 12:18:27;;;;;;;23.80;19.05;;;;;;;;;;4991925;28;20194;-68
2021/04/29 12:20:53;;;;;;;22.67;19.05;;;;;;;;;;4987257;28;20187;-68
2021/04/29 12:23:19;;;;;;;24.40;19.98;;;;;;;;;;4996944;28;20215;-68
2021/04/29 12:26:04;;;;;;;24.48;20.55;;;;;;;;;;4990481;28;20256;-69
2021/04/29 12:28:33;;;;;;;23.48;18.90;;;;;;;;;;4992680;28;20187;-66
2021/04/29 12:31:10;;;;;;;23.50;18.38;;;;;;;;;;4986775;28;20245;-66
2021/04/29 12:33:35;;;;;;;19.77;17.38;;;;;;;;;;4995738;28;20570;-66
2021/04/29 12:36:10;;;;;;;18.20;16.08;;;;;;;;;;4984716;28;20282;-67
2021/04/29 12:38:36;;;;;;;19.10;16.27;;;;;;;;;;4992444;28;20234;-66
2021/04/29 12:41:06;;;;;;;22.20;16.48;;;;;;;;;;4983047;28;20268;-67
2021/04/29 12:43:31;;;;;;;20.65;16.45;;;;;;;;;;4992213;28;20221;-68
2021/04/29 12:46:00;;;;;;;22.60;18.10;;;;;;;;;;4980649;28;20195;-67
2021/04/29 12:48:28;;;;;;;18.67;16.13;;;;;;;;;;4989732;28;20223;-67
2021/04/29 12:51:13;;;;;;;19.98;15.95;;;;;;;;;;4989309;28;20178;-67
2021/04/29 12:53:51;;;;;;;16.30;14.20;;;;;;;;;;4989924;28;20571;-67
2021/04/29 12:56:25;;;;;;;15.38;13.77;;;;;;;;;;4988530;28;21226;-67
2021/04/29 12:58:51;;;;;;;18.23;14.43;;;;;;;;;;4992372;28;20200;-67
2021/04/29 13:01:21;;;;;;;19.10;15.40;;;;;;;;;;4991900;28;20261;-67
2021/04/29 13:03:46;;;;;;;20.25;15.07;;;;;;;;;;4987128;28;20268;-66
2021/04/29 13:06:13;;;;;;;21.67;16.33;;;;;;;;;;4995057;28;20218;-67
2021/04/29 13:09:00;;;;;;;17.75;14.45;;;;;;;;;;4982026;28;20199;-67
2021/04/29 13:11:34;;;;;;;17.23;14.15;;;;;;;;;;4988291;28;20589;-66
2021/04/29 13:14:29;;;;;;;15.43;12.10;;;;;;;;;;4984084;28;20193;-66
2021/04/29 13:16:56;;;;;;;11.40;10.20;;;;;;;;;;4994829;28;20246;-67
2021/04/29 13:19:22;;;;;;;13.23;10.95;;;;;;;;;;4984595;28;20600;-67
2021/04/29 13:21:48;;;;;;;12.35;10.30;;;;;;;;;;4991465;28;20226;-66
2021/04/29 13:24:17;;;;;;;13.80;11.27;;;;;;;;;;4984407;28;20246;-66
2021/04/29 13:26:54;;;;;;;11.88;10.15;;;;;;;;;;4991369;28;20616;-68
2021/04/29 13:29:19;;;;;;;10.20;8.30;;;;;;;;;;4983953;28;20282;-66
2021/04/29 13:31:45;;;;;;;10.32;7.85;;;;;;;;;;4995199;28;20305;-67
2021/04/29 13:34:10;;;;;;;11.68;8.60;;;;;;;;;;4983533;28;20214;-67
2021/04/29 13:36:36;;;;;;;11.07;8.25;;;;;;;;;;4993753;28;20201;-67
2021/04/29 13:39:02;;;;;;;8.18;7.10;;;;;;;;;;4982492;28;20250;-67
2021/04/29 13:41:27;;;;;;;8.70;6.38;;;;;;;;;;4996682;28;20223;-67
2021/04/29 13:43:52;;;;;;;6.85;6.15;;;;;;;;;;4983911;28;20212;-67
2021/04/29 13:46:18;;;;;;;6.65;5.72;;;;;;;;;;4989904;28;20202;-67
2021/04/29 13:48:45;;;;;;;9.15;5.68;;;;;;;;;;4990652;28;20590;-67
2021/04/29 13:51:10;;;;;;;7.88;6.07;;;;;;;;;;4991509;28;20196;-66
2021/04/29 13:53:36;;;;;;;6.22;5.63;;;;;;;;;;4995287;28;20682;-66
2021/04/29 13:56:01;;;;;;;5.30;4.80;;;;;;;;;;4991427;28;20190;-66
2021/04/29 13:58:26;;;;;;;7.28;4.95;;;;;;;;;;4993278;28;20249;-68
2021/04/29 14:00:52;;;;;;;5.78;4.50;;;;;;;;;;4991160;28;20312;-67
2021/04/29 14:03:18;;;;;;;4.95;4.07;;;;;;;;;;4995683;28;20210;-66
2021/04/29 14:05:43;;;;;;;4.90;4.22;;;;;;;;;;4990731;28;20650;-67
2021/04/29 14:08:09;;;;;;;4.55;4.10;;;;;;;;;;4994152;28;20194;-66
2021/04/29 14:10:35;;;;;;;5.70;4.20;;;;;;;;;;4990087;28;20326;-67
2021/04/29 14:13:01;;;;;;;5.05;4.03;;;;;;;;;;4994627;28;20198;-66
2021/04/29 14:15:28;;;;;;;5.45;4.18;;;;;;;;;;4990991;28;20194;-67
2021/04/29 14:17:53;;;;;;;6.97;4.10;;;;;;;;;;4996638;28;20221;-67
2021/04/29 14:20:19;;;;;;;5.95;3.95;;;;;;;;;;4996072;28;20187;-66